ORBI/SDA METAR and TAF weather

Enter ICAO airport designator
Station Type Date Time Source
ORBI METAR 2019/06/16 05:00 UTC NOAA

ORBI 160500Z 11005KT 070V140 9000 NSC 37/11 Q1001 NOSIG


Station Type Date Time Source
ORBI Decoded METAR 2019/06/16 05:00 UTC NOAA

Station name not available
Jun 16, 2019 - 01:00 AM EDT / 2019.06.16 0500 UTC
Wind: from the ESE (110 degrees) at 6 MPH (5 KT) (direction variable):0
Visibility: 5 mile(s):0
Temperature: 98 F (37 C)
Heat index: 95.0 F (35.0 C):1
Dew Point: 51 F (11 C)
Relative Humidity: 20%
Pressure (altimeter): 29.56 in. Hg (1001 hPa)
ob: ORBI 160500Z 11005KT 070V140 9000 NSC 37/11 Q1001 NOSIG
cycle: 5

Station Type Date Time Source
ORBI TAF 2019/06/16 06:14 UTC NOAA

TAF ORBI 160400Z 1606/1706 30008KT 4000 HZ NSC
BECMG 1608/1610 7000

Example: see airport list